sensor_id;sensor_type;location;lat;lon;timestamp;P1;durP1;ratioP1;P2;durP2;ratioP2
76094;SDS011;64821;13.710;100.604;2023-03-01T20:02:22;39.08;;;32.58;;
76094;SDS011;64821;13.710;100.604;2023-03-01T20:03:26;38.93;;;31.10;;
76094;SDS011;64821;13.710;100.604;2023-03-01T20:04:31;39.05;;;33.65;;
76094;SDS011;64821;13.710;100.604;2023-03-01T20:05:35;39.38;;;33.95;;
76094;SDS011;64821;13.710;100.604;2023-03-01T20:06:39;39.90;;;34.50;;
76094;SDS011;64821;13.710;100.604;2023-03-01T20:07:42;41.55;;;35.45;;
76094;SDS011;64821;13.710;100.604;2023-03-01T20:08:46;42.50;;;35.20;;
76094;SDS011;64821;13.710;100.604;2023-03-01T20:09:50;40.10;;;35.67;;
76094;SDS011;64821;13.710;100.604;2023-03-01T20:10:59;40.95;;;35.53;;
76094;SDS011;64821;13.710;100.604;2023-03-01T20:12:04;45.47;;;38.13;;
76094;SDS011;64821;13.710;100.604;2023-03-01T20:13:08;41.78;;;37.08;;
76094;SDS011;64821;13.710;100.604;2023-03-01T20:14:11;44.57;;;36.33;;
76094;SDS011;64821;13.710;100.604;2023-03-01T20:15:15;42.85;;;35.65;;
76094;SDS011;64821;13.710;100.604;2023-03-01T20:16:20;43.30;;;35.60;;
76094;SDS011;64821;13.710;100.604;2023-03-01T20:17:24;42.53;;;34.95;;
76094;SDS011;64821;13.710;100.604;2023-03-01T20:18:28;49.33;;;36.50;;
76094;SDS011;64821;13.710;100.604;2023-03-01T20:19:32;46.00;;;37.23;;
76094;SDS011;64821;13.710;100.604;2023-03-01T20:20:36;43.67;;;37.33;;
76094;SDS011;64821;13.710;100.604;2023-03-01T20:21:39;42.53;;;36.67;;
76094;SDS011;64821;13.710;100.604;2023-03-01T20:22:43;41.88;;;37.30;;
76094;SDS011;64821;13.710;100.604;2023-03-01T20:23:47;43.35;;;37.28;;
76094;SDS011;64821;13.710;100.604;2023-03-01T20:24:50;46.27;;;37.87;;
76094;SDS011;64821;13.710;100.604;2023-03-01T20:26:00;42.83;;;38.22;;
76094;SDS011;64821;13.710;100.604;2023-03-01T20:27:05;46.20;;;37.72;;
76094;SDS011;64821;13.710;100.604;2023-03-01T20:28:08;44.05;;;37.80;;
76094;SDS011;64821;13.710;100.604;2023-03-01T20:29:12;42.47;;;37.75;;
76094;SDS011;64821;13.710;100.604;2023-03-01T20:30:16;46.43;;;38.90;;
76094;SDS011;64821;13.710;100.604;2023-03-01T20:31:22;43.72;;;37.38;;
76094;SDS011;64821;13.710;100.604;2023-03-01T20:32:26;42.03;;;35.40;;
76094;SDS011;64821;13.710;100.604;2023-03-01T20:33:30;45.72;;;37.72;;
76094;SDS011;64821;13.710;100.604;2023-03-01T20:34:35;45.00;;;38.70;;
76094;SDS011;64821;13.710;100.604;2023-03-01T20:35:41;47.83;;;39.23;;
76094;SDS011;64821;13.710;100.604;2023-03-01T20:36:45;45.83;;;37.80;;
76094;SDS011;64821;13.710;100.604;2023-03-01T20:37:50;50.28;;;40.47;;
76094;SDS011;64821;13.710;100.604;2023-03-01T20:38:54;47.90;;;39.72;;
76094;SDS011;64821;13.710;100.604;2023-03-01T20:39:58;46.38;;;38.28;;
76094;SDS011;64821;13.710;100.604;2023-03-01T20:41:03;46.47;;;39.90;;
76094;SDS011;64821;13.710;100.604;2023-03-01T20:42:09;52.97;;;40.40;;
76094;SDS011;64821;13.710;100.604;2023-03-01T20:43:12;49.15;;;41.15;;
76094;SDS011;64821;13.710;100.604;2023-03-01T20:44:16;45.72;;;38.75;;
76094;SDS011;64821;13.710;100.604;2023-03-01T20:45:20;43.17;;;37.90;;
76094;SDS011;64821;13.710;100.604;2023-03-01T20:46:26;45.77;;;38.37;;
76094;SDS011;64821;13.710;100.604;2023-03-01T20:47:29;45.03;;;38.70;;
76094;SDS011;64821;13.710;100.604;2023-03-01T20:48:33;43.33;;;38.58;;
76094;SDS011;64821;13.710;100.604;2023-03-01T20:49:37;46.35;;;38.58;;
76094;SDS011;64821;13.710;100.604;2023-03-01T20:50:41;44.00;;;38.35;;
76094;SDS011;64821;13.710;100.604;2023-03-01T20:51:44;44.57;;;38.60;;
76094;SDS011;64821;13.710;100.604;2023-03-01T20:52:48;43.30;;;38.55;;
76094;SDS011;64821;13.710;100.604;2023-03-01T20:53:52;43.90;;;38.78;;
76094;SDS011;64821;13.710;100.604;2023-03-01T20:54:55;43.97;;;39.15;;
76094;SDS011;64821;13.710;100.604;2023-03-01T20:56:00;46.65;;;39.22;;
76094;SDS011;64821;13.710;100.604;2023-03-01T20:57:04;45.23;;;39.07;;
76094;SDS011;64821;13.710;100.604;2023-03-01T20:58:08;44.95;;;38.65;;
76094;SDS011;64821;13.710;100.604;2023-03-01T20:59:12;46.80;;;39.50;;
76094;SDS011;64821;13.710;100.604;2023-03-01T21:00:16;45.95;;;39.42;;
76094;SDS011;64821;13.710;100.604;2023-03-01T21:01:20;46.63;;;39.08;;
76094;SDS011;64821;13.710;100.604;2023-03-01T21:02:25;47.60;;;40.00;;
76094;SDS011;64821;13.710;100.604;2023-03-01T21:03:29;46.08;;;40.03;;
76094;SDS011;64821;13.710;100.604;2023-03-01T21:04:33;45.40;;;39.63;;
76094;SDS011;64821;13.710;100.604;2023-03-01T21:05:36;45.83;;;38.05;;
76094;SDS011;64821;13.710;100.604;2023-03-01T21:06:40;45.42;;;40.38;;
76094;SDS011;64821;13.710;100.604;2023-03-01T21:07:44;44.43;;;39.23;;
76094;SDS011;64821;13.710;100.604;2023-03-01T21:08:48;45.70;;;40.05;;
76094;SDS011;64821;13.710;100.604;2023-03-01T21:09:51;45.58;;;40.05;;
76094;SDS011;64821;13.710;100.604;2023-03-01T21:10:55;45.35;;;39.42;;
76094;SDS011;64821;13.710;100.604;2023-03-01T21:11:59;45.00;;;39.05;;
76094;SDS011;64821;13.710;100.604;2023-03-01T21:13:03;50.03;;;40.37;;
76094;SDS011;64821;13.710;100.604;2023-03-01T21:14:07;48.33;;;39.72;;
76094;SDS011;64821;13.710;100.604;2023-03-01T21:15:11;46.33;;;39.00;;
76094;SDS011;64821;13.710;100.604;2023-03-01T21:16:29;42.80;;;37.67;;
76094;SDS011;64821;13.710;100.604;2023-03-01T21:17:35;46.45;;;40.25;;
76094;SDS011;64821;13.710;100.604;2023-03-01T21:18:39;47.97;;;39.77;;
76094;SDS011;64821;13.710;100.604;2023-03-01T21:19:43;46.47;;;38.60;;
76094;SDS011;64821;13.710;100.604;2023-03-01T21:20:47;45.25;;;39.28;;
76094;SDS011;64821;13.710;100.604;2023-03-01T21:21:51;49.13;;;39.75;;
76094;SDS011;64821;13.710;100.604;2023-03-01T21:22:55;47.03;;;39.75;;
76094;SDS011;64821;13.710;100.604;2023-03-01T21:23:58;47.37;;;39.40;;
76094;SDS011;64821;13.710;100.604;2023-03-01T21:25:02;47.05;;;39.25;;
76094;SDS011;64821;13.710;100.604;2023-03-01T21:26:06;48.03;;;39.30;;
76094;SDS011;64821;13.710;100.604;2023-03-01T21:27:11;46.95;;;39.45;;
76094;SDS011;64821;13.710;100.604;2023-03-01T21:28:15;44.58;;;39.15;;
76094;SDS011;64821;13.710;100.604;2023-03-01T21:29:18;47.57;;;39.30;;
76094;SDS011;64821;13.710;100.604;2023-03-01T21:30:22;47.58;;;39.30;;
76094;SDS011;64821;13.710;100.604;2023-03-01T21:31:26;47.60;;;39.85;;
76094;SDS011;64821;13.710;100.604;2023-03-01T21:32:31;46.53;;;39.15;;
76094;SDS011;64821;13.710;100.604;2023-03-01T21:33:36;44.72;;;38.63;;
76094;SDS011;64821;13.710;100.604;2023-03-01T21:34:41;46.53;;;39.27;;
76094;SDS011;64821;13.710;100.604;2023-03-01T21:35:47;43.20;;;37.83;;
76094;SDS011;64821;13.710;100.604;2023-03-01T21:36:51;46.72;;;39.38;;
76094;SDS011;64821;13.710;100.604;2023-03-01T21:37:54;47.50;;;39.50;;
76094;SDS011;64821;13.710;100.604;2023-03-01T21:38:58;43.72;;;38.92;;
76094;SDS011;64821;13.710;100.604;2023-03-01T21:40:03;46.53;;;39.13;;
76094;SDS011;64821;13.710;100.604;2023-03-01T21:41:08;47.33;;;39.42;;
76094;SDS011;64821;13.710;100.604;2023-03-01T21:42:13;44.67;;;39.53;;
76094;SDS011;64821;13.710;100.604;2023-03-01T21:43:16;43.83;;;37.67;;
76094;SDS011;64821;13.710;100.604;2023-03-01T21:44:20;44.60;;;39.40;;
76094;SDS011;64821;13.710;100.604;2023-03-01T21:45:24;47.37;;;39.73;;
76094;SDS011;64821;13.710;100.604;2023-03-01T21:46:29;42.88;;;38.25;;
76094;SDS011;64821;13.710;100.604;2023-03-01T21:47:34;48.40;;;40.67;;
76094;SDS011;64821;13.710;100.604;2023-03-01T21:48:39;47.60;;;40.35;;
76094;SDS011;64821;13.710;100.604;2023-03-01T21:49:46;46.40;;;40.83;;
76094;SDS011;64821;13.710;100.604;2023-03-01T21:50:53;46.83;;;40.37;;
76094;SDS011;64821;13.710;100.604;2023-03-01T21:51:57;48.70;;;40.03;;
76094;SDS011;64821;13.710;100.604;2023-03-01T21:53:00;47.22;;;40.22;;
76094;SDS011;64821;13.710;100.604;2023-03-01T21:54:04;43.95;;;39.08;;
76094;SDS011;64821;13.710;100.604;2023-03-01T21:55:08;48.55;;;40.53;;
76094;SDS011;64821;13.710;100.604;2023-03-01T21:56:14;48.50;;;40.83;;
76094;SDS011;64821;13.710;100.604;2023-03-01T21:57:19;47.03;;;39.85;;
76094;SDS011;64821;13.710;100.604;2023-03-01T21:58:23;44.88;;;39.72;;
76094;SDS011;64821;13.710;100.604;2023-03-01T21:59:27;47.75;;;40.53;;
76094;SDS011;64821;13.710;100.604;2023-03-01T22:00:31;46.65;;;40.00;;
76094;SDS011;64821;13.710;100.604;2023-03-01T22:01:35;47.93;;;40.90;;
76094;SDS011;64821;13.710;100.604;2023-03-01T22:02:38;51.97;;;42.08;;
76094;SDS011;64821;13.710;100.604;2023-03-01T22:03:44;52.00;;;43.10;;
76094;SDS011;64821;13.710;100.604;2023-03-01T22:04:50;50.97;;;42.53;;
76094;SDS011;64821;13.710;100.604;2023-03-01T22:05:55;51.83;;;43.55;;
76094;SDS011;64821;13.710;100.604;2023-03-01T22:06:59;50.33;;;41.60;;
76094;SDS011;64821;13.710;100.604;2023-03-01T22:08:03;51.22;;;43.20;;
76094;SDS011;64821;13.710;100.604;2023-03-01T22:09:08;49.80;;;42.42;;
76094;SDS011;64821;13.710;100.604;2023-03-01T22:10:14;51.42;;;42.45;;
76094;SDS011;64821;13.710;100.604;2023-03-01T22:11:18;51.33;;;43.00;;
76094;SDS011;64821;13.710;100.604;2023-03-01T22:12:22;48.20;;;41.93;;
76094;SDS011;64821;13.710;100.604;2023-03-01T22:13:26;48.75;;;42.22;;
76094;SDS011;64821;13.710;100.604;2023-03-01T22:14:30;47.03;;;41.38;;
76094;SDS011;64821;13.710;100.604;2023-03-01T22:15:34;49.53;;;41.75;;
76094;SDS011;64821;13.710;100.604;2023-03-01T22:16:42;53.13;;;42.20;;
76094;SDS011;64821;13.710;100.604;2023-03-01T22:17:46;50.27;;;43.43;;
76094;SDS011;64821;13.710;100.604;2023-03-01T22:18:52;49.10;;;41.45;;
76094;SDS011;64821;13.710;100.604;2023-03-01T22:19:56;48.08;;;41.35;;
76094;SDS011;64821;13.710;100.604;2023-03-01T22:21:02;49.55;;;42.45;;
76094;SDS011;64821;13.710;100.604;2023-03-01T22:22:06;52.15;;;42.83;;
76094;SDS011;64821;13.710;100.604;2023-03-01T22:23:10;50.97;;;43.37;;
76094;SDS011;64821;13.710;100.604;2023-03-01T22:24:14;49.67;;;42.45;;
76094;SDS011;64821;13.710;100.604;2023-03-01T22:25:26;49.10;;;43.53;;
76094;SDS011;64821;13.710;100.604;2023-03-01T22:26:30;53.15;;;44.22;;
76094;SDS011;64821;13.710;100.604;2023-03-01T22:27:36;50.08;;;43.28;;
76094;SDS011;64821;13.710;100.604;2023-03-01T22:28:40;54.20;;;43.77;;
76094;SDS011;64821;13.710;100.604;2023-03-01T22:29:46;52.20;;;44.03;;
76094;SDS011;64821;13.710;100.604;2023-03-01T22:30:49;53.45;;;45.47;;
76094;SDS011;64821;13.710;100.604;2023-03-01T22:31:54;54.03;;;46.05;;
76094;SDS011;64821;13.710;100.604;2023-03-01T22:32:58;53.45;;;45.25;;
76094;SDS011;64821;13.710;100.604;2023-03-01T22:34:04;50.47;;;43.23;;
76094;SDS011;64821;13.710;100.604;2023-03-01T22:35:08;52.42;;;41.90;;
76094;SDS011;64821;13.710;100.604;2023-03-01T22:36:12;52.55;;;44.33;;
76094;SDS011;64821;13.710;100.604;2023-03-01T22:37:16;49.67;;;41.90;;
76094;SDS011;64821;13.710;100.604;2023-03-01T22:38:19;58.53;;;44.30;;
76094;SDS011;64821;13.710;100.604;2023-03-01T22:39:23;56.23;;;44.20;;
76094;SDS011;64821;13.710;100.604;2023-03-01T22:40:27;53.95;;;43.15;;
76094;SDS011;64821;13.710;100.604;2023-03-01T22:41:31;51.08;;;43.60;;
76094;SDS011;64821;13.710;100.604;2023-03-01T22:42:40;53.70;;;43.85;;
76094;SDS011;64821;13.710;100.604;2023-03-01T22:43:44;54.40;;;44.60;;
76094;SDS011;64821;13.710;100.604;2023-03-01T22:44:47;54.37;;;44.60;;
76094;SDS011;64821;13.710;100.604;2023-03-01T22:45:51;52.65;;;43.60;;
76094;SDS011;64821;13.710;100.604;2023-03-01T22:46:55;54.00;;;44.72;;
76094;SDS011;64821;13.710;100.604;2023-03-01T22:47:58;52.50;;;45.22;;
76094;SDS011;64821;13.710;100.604;2023-03-01T22:49:04;54.42;;;45.10;;
76094;SDS011;64821;13.710;100.604;2023-03-01T22:50:10;50.30;;;43.53;;
76094;SDS011;64821;13.710;100.604;2023-03-01T22:51:16;49.08;;;43.35;;
76094;SDS011;64821;13.710;100.604;2023-03-01T22:52:22;56.40;;;44.75;;
76094;SDS011;64821;13.710;100.604;2023-03-01T22:53:25;53.00;;;44.85;;
76094;SDS011;64821;13.710;100.604;2023-03-01T22:54:29;54.95;;;44.47;;
76094;SDS011;64821;13.710;100.604;2023-03-01T22:55:33;55.87;;;45.13;;
76094;SDS011;64821;13.710;100.604;2023-03-01T22:56:37;57.25;;;46.33;;
76094;SDS011;64821;13.710;100.604;2023-03-01T22:57:41;50.83;;;43.45;;
76094;SDS011;64821;13.710;100.604;2023-03-01T22:58:45;57.83;;;47.58;;
76094;SDS011;64821;13.710;100.604;2023-03-01T22:59:48;53.97;;;45.67;;
76094;SDS011;64821;13.710;100.604;2023-03-01T23:00:52;57.93;;;45.63;;
76094;SDS011;64821;13.710;100.604;2023-03-01T23:01:55;54.17;;;45.90;;
76094;SDS011;64821;13.710;100.604;2023-03-01T23:02:59;56.28;;;44.08;;
76094;SDS011;64821;13.710;100.604;2023-03-01T23:04:05;54.83;;;45.63;;
76094;SDS011;64821;13.710;100.604;2023-03-01T23:05:09;54.92;;;45.92;;
76094;SDS011;64821;13.710;100.604;2023-03-01T23:06:13;56.20;;;44.93;;
76094;SDS011;64821;13.710;100.604;2023-03-01T23:07:18;55.00;;;44.83;;
76094;SDS011;64821;13.710;100.604;2023-03-01T23:08:22;56.58;;;45.53;;
76094;SDS011;64821;13.710;100.604;2023-03-01T23:09:27;54.78;;;46.35;;
76094;SDS011;64821;13.710;100.604;2023-03-01T23:10:32;55.50;;;45.83;;
76094;SDS011;64821;13.710;100.604;2023-03-01T23:11:36;59.50;;;44.77;;
76094;SDS011;64821;13.710;100.604;2023-03-01T23:12:39;56.00;;;44.78;;
76094;SDS011;64821;13.710;100.604;2023-03-01T23:13:43;53.00;;;43.88;;
76094;SDS011;64821;13.710;100.604;2023-03-01T23:14:47;51.58;;;42.85;;
76094;SDS011;64821;13.710;100.604;2023-03-01T23:15:51;56.47;;;45.83;;
76094;SDS011;64821;13.710;100.604;2023-03-01T23:16:56;54.33;;;46.27;;
76094;SDS011;64821;13.710;100.604;2023-03-01T23:17:59;56.20;;;46.83;;
76094;SDS011;64821;13.710;100.604;2023-03-01T23:19:05;54.53;;;46.50;;
76094;SDS011;64821;13.710;100.604;2023-03-01T23:20:09;62.08;;;48.38;;
76094;SDS011;64821;13.710;100.604;2023-03-01T23:21:13;60.97;;;48.80;;
76094;SDS011;64821;13.710;100.604;2023-03-01T23:22:19;57.93;;;47.83;;
76094;SDS011;64821;13.710;100.604;2023-03-01T23:23:23;54.08;;;46.58;;
76094;SDS011;64821;13.710;100.604;2023-03-01T23:24:26;60.03;;;48.65;;
76094;SDS011;64821;13.710;100.604;2023-03-01T23:25:30;59.40;;;47.80;;
76094;SDS011;64821;13.710;100.604;2023-03-01T23:26:34;57.92;;;48.25;;
76094;SDS011;64821;13.710;100.604;2023-03-01T23:27:37;54.70;;;47.13;;
76094;SDS011;64821;13.710;100.604;2023-03-01T23:28:41;56.17;;;48.58;;
76094;SDS011;64821;13.710;100.604;2023-03-01T23:29:45;61.13;;;49.78;;
76094;SDS011;64821;13.710;100.604;2023-03-01T23:30:55;61.58;;;48.78;;
76094;SDS011;64821;13.710;100.604;2023-03-01T23:32:00;58.55;;;49.42;;
76094;SDS011;64821;13.710;100.604;2023-03-01T23:33:04;60.60;;;50.40;;
76094;SDS011;64821;13.710;100.604;2023-03-01T23:34:09;56.28;;;47.50;;
76094;SDS011;64821;13.710;100.604;2023-03-01T23:35:13;60.40;;;49.67;;
76094;SDS011;64821;13.710;100.604;2023-03-01T23:36:17;63.90;;;51.00;;
76094;SDS011;64821;13.710;100.604;2023-03-01T23:37:23;65.43;;;50.92;;
76094;SDS011;64821;13.710;100.604;2023-03-01T23:38:31;60.40;;;49.63;;
76094;SDS011;64821;13.710;100.604;2023-03-01T23:39:35;58.22;;;49.03;;
76094;SDS011;64821;13.710;100.604;2023-03-01T23:40:39;60.75;;;48.47;;
76094;SDS011;64821;13.710;100.604;2023-03-01T23:41:43;59.10;;;49.88;;
76094;SDS011;64821;13.710;100.604;2023-03-01T23:42:47;57.85;;;47.55;;
76094;SDS011;64821;13.710;100.604;2023-03-01T23:43:51;58.80;;;48.37;;
76094;SDS011;64821;13.710;100.604;2023-03-01T23:44:56;59.33;;;47.70;;
76094;SDS011;64821;13.710;100.604;2023-03-01T23:45:59;60.90;;;50.22;;
76094;SDS011;64821;13.710;100.604;2023-03-01T23:47:03;59.50;;;49.10;;
76094;SDS011;64821;13.710;100.604;2023-03-01T23:48:07;61.38;;;50.22;;
76094;SDS011;64821;13.710;100.604;2023-03-01T23:49:14;58.83;;;47.80;;
76094;SDS011;64821;13.710;100.604;2023-03-01T23:50:19;58.20;;;47.00;;
76094;SDS011;64821;13.710;100.604;2023-03-01T23:51:25;58.05;;;47.75;;
76094;SDS011;64821;13.710;100.604;2023-03-01T23:52:29;53.00;;;46.30;;
76094;SDS011;64821;13.710;100.604;2023-03-01T23:53:38;53.75;;;47.13;;
76094;SDS011;64821;13.710;100.604;2023-03-01T23:54:43;59.47;;;47.53;;
76094;SDS011;64821;13.710;100.604;2023-03-01T23:55:48;55.15;;;45.95;;
76094;SDS011;64821;13.710;100.604;2023-03-01T23:56:53;53.15;;;44.65;;
76094;SDS011;64821;13.710;100.604;2023-03-01T23:57:56;57.80;;;46.83;;
76094;SDS011;64821;13.710;100.604;2023-03-01T23:59:00;53.38;;;44.53;;
